Time;durP1;ratioP1;P1;durP2;ratioP2;P2;SDS_P1;SDS_P2;PMS_P1;PMS_P2;Temp;Humidity;BMP_temperature;BMP_pressure;BME280_temperature;BME280_humidity;BME280_pressure;Samples;Min_cycle;Max_cycle;Signal;HPM_P1;HPM_P2
2022/02/25 00:02:44;;;;;;;4.37;1.10;;;;;;;3.54;73.82;97501.66;6243074;28;20718;-71
2022/02/25 00:05:46;;;;;;;2.93;1.33;;;;;;;3.66;72.95;97500.13;6253381;28;20233;-72
2022/02/25 00:08:48;;;;;;;2.43;0.90;;;;;;;3.93;71.66;97502.97;6239597;28;20233;-73
2022/02/25 00:11:50;;;;;;;4.13;1.00;;;;;;;4.24;69.49;97508.13;6249874;28;20247;-71
2022/02/25 00:14:54;;;;;;;1.20;0.80;;;;;;;4.66;67.61;97496.09;6262713;28;20314;-70
2022/02/25 00:17:56;;;;;;;4.27;1.10;;;;;;;4.71;68.16;97502.72;6279556;28;20225;-72
2022/02/25 00:20:58;;;;;;;5.03;0.90;;;;;;;4.69;67.74;97498.53;6279305;28;20571;-72
2022/02/25 00:24:00;;;;;;;2.00;0.90;;;;;;;4.68;68.19;97500.31;6279808;28;20313;-72
2022/02/25 00:27:03;;;;;;;1.00;0.80;;;;;;;4.60;68.64;97501.66;6280238;28;20621;-70
2022/02/25 00:30:06;;;;;;;2.70;0.97;;;;;;;4.48;68.41;97492.81;6277956;28;20224;-72
2022/02/25 00:33:09;;;;;;;3.20;1.00;;;;;;;4.53;67.94;97487.28;6263680;28;20296;-71
2022/02/25 00:36:11;;;;;;;4.10;1.20;;;;;;;5.08;65.16;97479.59;6237619;28;20234;-70
2022/02/25 00:39:13;;;;;;;3.40;1.20;;;;;;;5.20;64.97;97484.03;6272128;28;20345;-72
2022/02/25 00:42:15;;;;;;;3.13;1.20;;;;;;;5.18;64.88;97485.94;6261603;28;20206;-71
2022/02/25 00:45:17;;;;;;;5.57;1.20;;;;;;;5.43;63.95;97501.78;6261803;28;20232;-73
2022/02/25 00:48:19;;;;;;;2.63;1.10;;;;;;;5.44;63.65;97511.31;6261269;28;20230;-70
2022/02/25 00:51:21;;;;;;;2.50;0.93;;;;;;;5.39;64.54;97515.16;6261694;28;20694;-72
2022/02/25 00:54:23;;;;;;;3.37;1.20;;;;;;;5.24;65.27;97511.69;6277957;28;20230;-72
2022/02/25 00:57:25;;;;;;;4.30;0.80;;;;;;;5.07;66.13;97512.75;6261302;28;20356;-72
2022/02/25 01:00:30;;;;;;;2.33;1.30;;;;;;;5.02;65.72;97522.63;6260745;28;20222;-72
2022/02/25 01:03:32;;;;;;;2.63;1.03;;;;;;;4.94;66.46;97522.25;6262015;28;20702;-71
2022/02/25 01:06:35;;;;;;;5.07;1.43;;;;;;;4.91;66.84;97514.59;6278779;28;20603;-73
2022/02/25 01:09:37;;;;;;;2.27;0.90;;;;;;;4.92;66.56;97513.66;6261668;28;20301;-72
2022/02/25 01:12:40;;;;;;;5.47;1.60;;;;;;;4.93;67.04;97523.19;6261686;28;20233;-72
2022/02/25 01:15:42;;;;;;;2.83;0.97;;;;;;;4.98;66.64;97517.69;6260396;28;20241;-71
2022/02/25 01:18:44;;;;;;;3.00;1.27;;;;;;;5.10;66.57;97517.78;6244058;28;20230;-72
2022/02/25 01:21:46;;;;;;;4.47;1.27;;;;;;;5.04;66.35;97515.53;6260707;28;20332;-72
2022/02/25 01:24:48;;;;;;;2.83;1.27;;;;;;;5.25;66.12;97515.16;6278384;28;20245;-71
2022/02/25 01:27:50;;;;;;;4.30;1.20;;;;;;;5.66;65.42;97508.19;6278285;28;20559;-70
2022/02/25 01:30:53;;;;;;;2.50;1.03;;;;;;;5.82;64.05;97511.50;6260213;28;20241;-71
2022/02/25 01:33:55;;;;;;;3.20;1.50;;;;;;;5.77;64.64;97513.59;6246201;28;20320;-72
2022/02/25 01:36:57;;;;;;;3.83;1.90;;;;;;;5.86;64.65;97515.63;6258014;28;20255;-71
2022/02/25 01:40:00;;;;;;;4.73;1.53;;;;;;;5.86;64.61;97520.00;6255508;28;21005;-72
2022/02/25 01:43:02;;;;;;;2.60;1.10;;;;;;;5.65;64.88;97508.28;6260466;28;20241;-72
2022/02/25 01:46:04;;;;;;;4.13;1.23;;;;;;;5.40;65.95;97507.19;6259412;28;20288;-71
2022/02/25 01:49:06;;;;;;;5.47;1.53;;;;;;;5.19;66.84;97513.78;6260155;28;20307;-71
2022/02/25 01:52:12;;;;;;;3.30;1.10;;;;;;;4.94;67.18;97506.56;6241967;28;20234;-70
2022/02/25 01:55:14;;;;;;;2.80;1.30;;;;;;;4.79;68.18;97518.78;6250011;28;20618;-72
2022/02/25 01:58:16;;;;;;;5.90;1.60;;;;;;;4.87;68.11;97518.34;6260423;28;20240;-72
2022/02/25 02:01:19;;;;;;;3.83;1.30;;;;;;;4.99;67.52;97530.66;6277311;28;20234;-71
2022/02/25 02:04:25;;;;;;;7.70;1.57;;;;;;;5.09;67.62;97528.34;6276555;28;20332;-71
2022/02/25 02:07:27;;;;;;;7.93;2.00;;;;;;;5.21;66.44;97527.56;6274024;28;20326;-71
2022/02/25 02:10:29;;;;;;;4.37;1.40;;;;;;;5.20;66.39;97531.97;6277362;28;20238;-72
2022/02/25 02:13:31;;;;;;;2.67;1.43;;;;;;;5.15;67.07;97527.97;6276634;28;20241;-71
2022/02/25 02:16:34;;;;;;;5.63;1.50;;;;;;;5.09;67.51;97517.88;6277393;28;20330;-71
2022/02/25 02:19:36;;;;;;;7.30;1.60;;;;;;;5.13;67.59;97503.66;6277426;28;20816;-73
2022/02/25 02:22:39;;;;;;;2.97;1.30;;;;;;;4.98;67.94;97496.78;6259077;28;20230;-71
2022/02/25 02:25:41;;;;;;;5.07;1.80;;;;;;;5.32;66.30;97480.66;6258305;28;20238;-72
2022/02/25 02:28:43;;;;;;;5.57;1.60;;;;;;;5.62;65.45;97490.97;6259947;28;20717;-71
2022/02/25 02:31:45;;;;;;;4.40;1.83;;;;;;;5.75;64.09;97488.44;6275078;28;20227;-72
2022/02/25 02:34:47;;;;;;;8.10;1.43;;;;;;;5.46;65.47;97471.97;6258469;28;20283;-72
2022/02/25 02:37:49;;;;;;;6.43;1.20;;;;;;;5.06;65.79;97482.28;6267139;28;20318;-72
2022/02/25 02:40:51;;;;;;;4.07;1.40;;;;;;;4.73;67.79;97493.00;6272231;28;20534;-72
2022/02/25 02:43:53;;;;;;;2.57;1.33;;;;;;;4.56;68.04;97492.34;6257937;28;20229;-73
2022/02/25 02:46:56;;;;;;;4.40;1.40;;;;;;;4.29;68.22;97492.19;6258929;28;20234;-72
2022/02/25 02:49:58;;;;;;;2.50;1.10;;;;;;;4.14;68.78;97499.13;6258581;28;20368;-72
2022/02/25 02:53:00;;;;;;;3.83;1.47;;;;;;;4.02;69.64;97515.50;6276014;28;20218;-71
2022/02/25 02:56:03;;;;;;;4.33;1.50;;;;;;;3.92;70.63;97517.78;6275443;28;20245;-71
2022/02/25 02:59:05;;;;;;;2.90;1.43;;;;;;;4.66;68.49;97506.53;6258113;28;20578;-70
2022/02/25 03:02:07;;;;;;;7.07;1.70;;;;;;;5.25;66.57;97512.53;6275819;28;20233;-71
2022/02/25 03:05:10;;;;;;;6.03;1.60;;;;;;;5.22;66.21;97517.97;6276456;28;20718;-71
2022/02/25 03:08:13;;;;;;;3.53;1.40;;;;;;;5.27;66.11;97515.91;6245541;28;20230;-72
2022/02/25 03:11:15;;;;;;;4.30;1.27;;;;;;;5.25;66.18;97513.38;6266162;28;20252;-71
2022/02/25 03:14:20;;;;;;;3.43;1.63;;;;;;;5.26;66.82;97516.84;6259968;28;20226;-72
2022/02/25 03:17:22;;;;;;;5.00;1.47;;;;;;;5.22;66.55;97517.97;6257667;28;20234;-71
2022/02/25 03:20:25;;;;;;;3.23;1.47;;;;;;;5.10;66.51;97524.78;6257389;28;20646;-72
2022/02/25 03:23:27;;;;;;;6.67;1.63;;;;;;;4.98;67.17;97526.38;6259396;28;20656;-72
2022/02/25 03:26:29;;;;;;;5.10;1.77;;;;;;;4.87;67.25;97527.97;6275799;28;20238;-72
2022/02/25 03:29:32;;;;;;;3.23;1.27;;;;;;;4.69;67.90;97535.13;6257568;28;20251;-72
2022/02/25 03:32:34;;;;;;;5.40;1.57;;;;;;;4.63;68.30;97548.53;6246675;28;20227;-73
2022/02/25 03:35:38;;;;;;;4.90;1.53;;;;;;;5.07;67.84;97553.75;6236965;28;20289;-70
2022/02/25 03:38:40;;;;;;;6.10;1.67;;;;;;;5.59;66.41;97571.50;6259367;28;20648;-71
2022/02/25 03:41:42;;;;;;;6.20;1.93;;;;;;;5.98;64.83;97561.19;6256631;28;20634;-72
2022/02/25 03:44:44;;;;;;;6.73;1.70;;;;;;;6.18;64.11;97573.84;6275047;28;20280;-71
2022/02/25 03:47:46;;;;;;;3.40;1.50;;;;;;;6.45;63.07;97559.88;6275240;28;20613;-72
2022/02/25 03:50:48;;;;;;;3.20;1.40;;;;;;;6.56;63.23;97566.09;6280407;28;20637;-72
2022/02/25 03:53:50;;;;;;;2.60;1.33;;;;;;;6.57;64.11;97582.66;6275451;28;20319;-71
2022/02/25 03:56:53;;;;;;;4.60;1.80;;;;;;;6.63;63.63;97590.13;6244666;28;20657;-72
2022/02/25 03:59:57;;;;;;;3.20;1.40;;;;;;;6.75;62.88;97606.81;6257890;28;20237;-72
2022/02/25 04:02:59;;;;;;;5.03;1.83;;;;;;;6.81;62.23;97619.53;6257864;28;20706;-71
2022/02/25 04:06:02;;;;;;;5.13;2.30;;;;;;;6.87;62.04;97616.50;6274659;28;20219;-72
2022/02/25 04:09:04;;;;;;;5.13;2.03;;;;;;;6.91;62.03;97642.44;6265775;28;20697;-72
2022/02/25 04:12:07;;;;;;;6.83;2.57;;;;;;;6.93;62.36;97635.31;6257302;28;20287;-71
2022/02/25 04:15:09;;;;;;;5.63;2.20;;;;;;;6.92;62.86;97653.75;6275813;28;20255;-72
2022/02/25 04:18:11;;;;;;;5.03;2.33;;;;;;;6.84;63.39;97693.63;6274933;28;20572;-72
2022/02/25 04:21:13;;;;;;;5.00;2.43;;;;;;;6.83;64.46;97725.19;6257070;28;20213;-71
2022/02/25 04:24:16;;;;;;;6.27;2.40;;;;;;;6.60;65.57;97743.22;6275156;28;20290;-72
2022/02/25 04:27:18;;;;;;;3.90;2.13;;;;;;;6.36;66.40;97755.28;6275278;28;20280;-72
2022/02/25 04:30:20;;;;;;;3.00;1.80;;;;;;;6.00;68.39;97771.44;6256856;28;20331;-72
2022/02/25 04:33:23;;;;;;;3.27;1.50;;;;;;;5.68;69.04;97781.22;6269088;28;20224;-72
2022/02/25 04:36:26;;;;;;;2.90;1.40;;;;;;;5.47;70.41;97803.41;6245589;28;20230;-72
2022/02/25 04:39:28;;;;;;;2.67;1.10;;;;;;;5.09;71.35;97798.56;6238653;28;20676;-72
2022/02/25 04:42:31;;;;;;;3.37;1.27;;;;;;;4.87;72.37;97805.94;6256962;28;20241;-72
2022/02/25 04:45:33;;;;;;;2.63;0.83;;;;;;;4.58;74.61;97818.00;6255625;28;20602;-72
2022/02/25 04:48:35;;;;;;;1.73;1.00;;;;;;;4.44;75.19;97823.97;6257743;28;20814;-72
2022/02/25 04:51:37;;;;;;;2.23;0.77;;;;;;;4.23;75.92;97819.88;6240288;28;20286;-72
2022/02/25 04:54:39;;;;;;;2.13;1.00;;;;;;;4.08;77.54;97826.75;6274620;28;20252;-72
2022/02/25 04:57:42;;;;;;;0.90;0.90;;;;;;;3.99;77.25;97839.44;6277417;28;20224;-72
2022/02/25 05:00:44;;;;;;;0.50;0.50;;;;;;;3.95;78.01;97824.84;6279957;28;20304;-72
2022/02/25 05:03:47;;;;;;;2.03;0.70;;;;;;;3.82;78.25;97806.34;6262064;28;20241;-71
2022/02/25 05:06:49;;;;;;;0.67;0.67;;;;;;;3.66;77.96;97808.06;6260597;28;21815;-70
2022/02/25 05:09:51;;;;;;;0.70;0.47;;;;;;;3.57;78.03;97803.31;6255879;28;20237;-72
2022/02/25 05:12:54;;;;;;;1.00;0.63;;;;;;;3.48;78.22;97798.56;6278858;28;20232;-72
2022/02/25 05:22:41;;;;;;;1.10;0.60;;;;;;;3.26;77.03;97819.63;6278701;28;20799;-72
2022/02/25 05:25:44;;;;;;;0.57;0.40;;;;;;;3.25;76.81;97805.75;6278512;28;20272;-73
2022/02/25 05:28:46;;;;;;;2.57;0.50;;;;;;;3.20;76.98;97825.97;6279539;28;20240;-67
2022/02/25 05:31:48;;;;;;;0.53;0.40;;;;;;;3.10;77.97;97832.56;6284238;28;20237;-67
2022/02/25 05:34:50;;;;;;;0.57;0.57;;;;;;;3.00;78.19;97844.34;6278262;28;20240;-67
2022/02/25 05:37:53;;;;;;;0.80;0.50;;;;;;;2.91;77.80;97857.81;6273101;28;20270;-67
2022/02/25 05:40:55;;;;;;;0.47;0.47;;;;;;;2.89;77.13;97857.06;6277704;28;20247;-67
2022/02/25 05:43:57;;;;;;;2.10;0.60;;;;;;;2.80;76.80;97841.81;6278442;28;20719;-67
2022/02/25 05:46:59;;;;;;;0.87;0.57;;;;;;;2.69;76.82;97859.75;6278445;28;20227;-67
2022/02/25 05:50:07;;;;;;;0.97;0.70;;;;;;;2.58;75.92;97853.25;6278020;28;20573;-67
2022/02/25 05:53:09;;;;;;;1.43;0.40;;;;;;;2.50;76.65;97863.16;6277302;28;20602;-67
2022/02/25 05:56:11;;;;;;;1.30;0.50;;;;;;;2.38;76.86;97876.75;6259373;28;20608;-66
2022/02/25 05:59:14;;;;;;;2.00;0.50;;;;;;;2.29;76.84;97890.19;6277070;28;20230;-68
2022/02/25 06:02:16;;;;;;;0.90;0.40;;;;;;;2.29;76.09;97892.78;6279110;28;20351;-68
2022/02/25 06:05:22;;;;;;;1.17;0.70;;;;;;;2.27;76.19;97898.97;6278055;28;20216;-69
2022/02/25 06:08:24;;;;;;;0.87;0.50;;;;;;;2.32;74.27;97895.22;6244084;28;20326;-67
2022/02/25 06:11:26;;;;;;;2.57;0.53;;;;;;;2.39;74.12;97875.00;6276321;28;20288;-68
2022/02/25 06:14:28;;;;;;;0.83;0.53;;;;;;;2.37;74.17;97856.81;6259093;28;20745;-68
2022/02/25 06:17:30;;;;;;;0.50;0.50;;;;;;;2.42;74.32;97874.84;6276688;28;20751;-67
2022/02/25 06:20:34;;;;;;;1.57;0.53;;;;;;;2.42;73.88;97880.03;6275816;28;20744;-67
2022/02/25 06:23:36;;;;;;;0.67;0.60;;;;;;;2.42;73.42;97895.66;6276212;28;20238;-67
2022/02/25 06:26:38;;;;;;;2.00;0.50;;;;;;;2.44;73.09;97897.31;6276256;28;20685;-68
2022/02/25 06:29:40;;;;;;;2.27;0.63;;;;;;;2.50;71.52;97919.63;6276695;28;20234;-69
2022/02/25 06:32:43;;;;;;;2.47;0.50;;;;;;;2.56;71.82;97909.78;6267845;28;20679;-68
2022/02/25 06:35:46;;;;;;;0.67;0.50;;;;;;;2.61;71.37;97912.16;6275289;28;20359;-67
2022/02/25 06:38:48;;;;;;;1.70;0.40;;;;;;;2.68;71.46;97904.94;6260028;28;20602;-67
2022/02/25 06:41:50;;;;;;;2.47;0.50;;;;;;;2.67;72.42;97885.00;6272292;28;20252;-68
2022/02/25 06:44:53;;;;;;;0.80;0.50;;;;;;;2.72;70.70;97876.06;6276335;28;20231;-68
2022/02/25 06:47:55;;;;;;;2.00;0.57;;;;;;;2.78;70.88;97880.16;6259042;28;20231;-68
2022/02/25 06:50:57;;;;;;;0.77;0.60;;;;;;;2.80;71.17;97875.69;6276083;28;20609;-68
2022/02/25 06:53:59;;;;;;;1.00;0.70;;;;;;;2.79;71.29;97871.44;6276462;28;20786;-67
2022/02/25 06:57:01;;;;;;;1.27;0.70;;;;;;;2.78;71.23;97896.66;6275096;28;20402;-68
2022/02/25 07:00:04;;;;;;;2.93;0.60;;;;;;;2.77;70.36;97933.19;6275258;28;20333;-68
2022/02/25 07:03:07;;;;;;;0.60;0.60;;;;;;;2.82;70.63;97972.91;6276239;28;20216;-67
2022/02/25 07:06:09;;;;;;;1.63;0.80;;;;;;;2.81;70.99;97960.78;6225230;28;20796;-67
2022/02/25 07:09:11;;;;;;;0.90;0.57;;;;;;;2.81;71.48;97999.88;6249864;28;20680;-69
2022/02/25 07:12:13;;;;;;;1.17;0.70;;;;;;;2.85;70.24;97997.09;6267982;28;20215;-67
2022/02/25 07:15:15;;;;;;;1.60;0.83;;;;;;;2.82;70.09;97999.81;6259521;28;20223;-70
2022/02/25 07:18:18;;;;;;;1.53;0.80;;;;;;;2.81;70.96;98000.72;6275420;28;20311;-67
2022/02/25 07:21:20;;;;;;;2.30;1.00;;;;;;;2.87;70.18;98021.31;6275978;28;20218;-68
2022/02/25 07:24:22;;;;;;;2.50;0.80;;;;;;;2.89;70.61;98027.31;6275229;28;20668;-66
2022/02/25 07:27:25;;;;;;;0.67;0.53;;;;;;;2.93;69.85;98030.63;6272265;28;20244;-67
2022/02/25 07:30:28;;;;;;;1.40;0.90;;;;;;;3.03;70.07;98024.09;6275102;28;20223;-68
2022/02/25 07:33:31;;;;;;;1.03;0.70;;;;;;;3.13;68.86;98030.59;6256467;28;20437;-67
2022/02/25 07:36:34;;;;;;;0.87;0.70;;;;;;;3.23;69.18;98044.06;6267009;28;20591;-67
2022/02/25 07:39:36;;;;;;;2.10;0.90;;;;;;;3.30;67.12;98035.88;6265981;28;20230;-67
2022/02/25 07:42:38;;;;;;;1.57;0.80;;;;;;;3.44;67.52;98052.66;6275680;28;20461;-68
2022/02/25 07:45:40;;;;;;;0.93;0.90;;;;;;;3.57;67.25;98049.44;6276117;28;20603;-68
2022/02/25 07:48:43;;;;;;;1.20;0.80;;;;;;;3.67;67.02;98045.47;6273715;28;20302;-67
2022/02/25 07:51:50;;;;;;;1.03;0.90;;;;;;;3.77;67.68;98053.72;6276051;28;20236;-68
2022/02/25 07:54:53;;;;;;;2.13;1.10;;;;;;;3.76;67.34;98059.00;6257496;28;20224;-67
2022/02/25 07:57:57;;;;;;;1.23;0.70;;;;;;;3.87;65.81;98062.81;6259020;28;20227;-68
2022/02/25 08:01:03;;;;;;;1.60;0.90;;;;;;;3.96;64.74;98066.75;6274977;28;20238;-68
2022/02/25 08:04:07;;;;;;;0.87;0.70;;;;;;;3.99;65.00;98067.44;6257242;28;20238;-68
2022/02/25 08:07:09;;;;;;;0.90;0.90;;;;;;;4.05;64.79;98068.91;6271078;28;20233;-67
2022/02/25 08:10:11;;;;;;;0.67;0.63;;;;;;;4.06;64.31;98083.66;6243964;28;20701;-67
2022/02/25 08:13:13;;;;;;;0.73;0.63;;;;;;;4.11;64.42;98075.59;6275337;28;20666;-68
2022/02/25 08:16:15;;;;;;;1.73;0.80;;;;;;;4.13;64.34;98081.59;6273954;28;20281;-68
2022/02/25 08:19:17;;;;;;;1.80;0.87;;;;;;;4.19;63.83;98087.41;6273859;28;20233;-68
2022/02/25 08:22:22;;;;;;;2.50;0.73;;;;;;;4.26;62.88;98086.16;6273538;28;20236;-67
2022/02/25 08:25:24;;;;;;;2.43;0.70;;;;;;;4.39;62.09;98092.47;6256988;28;20281;-67
2022/02/25 08:28:26;;;;;;;2.73;0.90;;;;;;;4.70;61.78;98096.19;6275412;28;20624;-69
2022/02/25 08:31:28;;;;;;;1.50;0.90;;;;;;;4.85;60.88;98084.97;6254307;28;20635;-67
2022/02/25 08:34:31;;;;;;;2.63;0.87;;;;;;;4.59;61.84;98099.31;6268842;28;20300;-67
2022/02/25 08:37:33;;;;;;;0.63;0.63;;;;;;;4.51;61.46;98108.47;6272504;28;20258;-68
2022/02/25 08:40:36;;;;;;;1.87;0.90;;;;;;;4.50;61.92;98088.47;6259919;28;20233;-67
2022/02/25 08:43:38;;;;;;;1.10;0.80;;;;;;;4.47;63.15;98093.88;6277806;28;20236;-67
2022/02/25 08:46:44;;;;;;;1.80;0.73;;;;;;;4.43;63.45;98108.84;6278328;28;20238;-67
2022/02/25 08:49:46;;;;;;;0.90;0.80;;;;;;;4.24;60.60;98113.28;6278825;28;20246;-68
2022/02/25 08:52:52;;;;;;;1.40;1.00;;;;;;;4.21;62.59;98118.63;6279114;28;20250;-68
2022/02/25 08:55:54;;;;;;;1.87;0.87;;;;;;;4.14;61.64;98112.88;6258748;28;20606;-66
2022/02/25 08:58:56;;;;;;;4.13;0.80;;;;;;;4.17;61.49;98120.56;6260508;28;20288;-68
2022/02/25 09:01:59;;;;;;;0.70;0.70;;;;;;;4.34;61.41;98114.53;6260507;28;20730;-66
2022/02/25 09:05:02;;;;;;;0.93;0.73;;;;;;;4.45;61.70;98109.63;6271877;28;20395;-67
2022/02/25 09:08:05;;;;;;;1.90;0.80;;;;;;;4.52;59.66;98115.41;6257842;28;20725;-68
2022/02/25 09:11:08;;;;;;;2.97;0.90;;;;;;;4.95;60.33;98104.50;6260809;28;20857;-67
2022/02/25 09:14:10;;;;;;;0.70;0.70;;;;;;;5.09;57.45;98109.03;6260611;28;20732;-67
2022/02/25 09:17:13;;;;;;;0.87;0.77;;;;;;;5.16;57.71;98105.16;6278362;28;20743;-68
2022/02/25 09:20:15;;;;;;;2.27;1.00;;;;;;;5.16;59.22;98098.16;6261931;28;20353;-68
2022/02/25 09:23:17;;;;;;;1.37;0.90;;;;;;;5.44;57.10;98120.28;6260704;28;20538;-69
2022/02/25 09:26:21;;;;;;;1.63;0.70;;;;;;;5.43;58.87;98127.28;6277177;28;20282;-69
2022/02/25 09:29:23;;;;;;;2.10;0.90;;;;;;;5.41;57.94;98133.50;6260499;28;20236;-68
2022/02/25 09:32:26;;;;;;;0.80;0.70;;;;;;;5.37;58.98;98122.38;6273666;28;20234;-67
2022/02/25 09:35:28;;;;;;;1.30;0.77;;;;;;;5.20;59.27;98138.06;6277449;28;20867;-67
2022/02/25 09:38:30;;;;;;;1.23;0.90;;;;;;;4.90;59.67;98123.94;6262824;28;20273;-66
2022/02/25 09:41:33;;;;;;;1.27;0.80;;;;;;;4.92;59.67;98124.72;6276586;28;20327;-67
2022/02/25 09:44:35;;;;;;;0.97;0.80;;;;;;;5.02;59.52;98139.03;6278114;28;20713;-68
2022/02/25 09:47:38;;;;;;;0.77;0.70;;;;;;;4.88;60.29;98146.72;6277722;28;20295;-67
2022/02/25 09:50:42;;;;;;;1.00;0.80;;;;;;;4.56;59.80;98130.03;6278409;28;20786;-67
2022/02/25 09:53:44;;;;;;;1.87;1.00;;;;;;;4.62;60.68;98124.47;6260422;28;20236;-67
2022/02/25 09:56:48;;;;;;;1.50;0.73;;;;;;;4.62;60.55;98134.94;6259991;28;20796;-69
2022/02/25 09:59:50;;;;;;;0.97;0.83;;;;;;;4.68;59.14;98116.34;6259030;28;20237;-67
2022/02/25 10:02:55;;;;;;;4.00;1.17;;;;;;;4.68;58.70;98129.41;6259211;28;20629;-67
2022/02/25 10:06:09;;;;;;;0.73;0.67;;;;;;;4.86;58.90;98120.66;6242015;28;20775;-67
2022/02/25 10:09:31;;;;;;;1.23;0.63;;;;;;;4.78;59.67;98121.03;6256492;28;20237;-67
2022/02/25 10:12:33;;;;;;;1.93;0.60;;;;;;;4.70;59.37;98119.72;6256784;28;20241;-67
2022/02/25 10:15:37;;;;;;;0.80;0.70;;;;;;;4.57;58.67;98116.88;6238548;28;20238;-67
2022/02/25 10:18:39;;;;;;;1.50;0.80;;;;;;;4.56;59.78;98120.41;6267989;28;20236;-67
2022/02/25 10:21:41;;;;;;;2.40;0.87;;;;;;;4.57;60.21;98121.25;6258555;28;20241;-68
2022/02/25 10:24:44;;;;;;;1.17;0.90;;;;;;;4.67;60.62;98122.50;6259036;28;20233;-67
2022/02/25 10:27:46;;;;;;;0.87;0.70;;;;;;;4.66;59.84;98120.81;6276434;28;20239;-66
2022/02/25 10:30:49;;;;;;;1.57;0.87;;;;;;;4.69;59.45;98108.41;6258820;28;20249;-67
2022/02/25 10:34:12;;;;;;;1.23;0.90;;;;;;;4.64;59.26;98105.19;6237252;28;20273;-67
2022/02/25 10:37:14;;;;;;;2.10;1.10;;;;;;;4.74;58.59;98114.25;6216747;28;20711;-68
2022/02/25 10:40:16;;;;;;;2.40;0.60;;;;;;;4.75;58.09;98092.44;6225810;28;20279;-74
2022/02/25 10:43:18;;;;;;;2.13;0.63;;;;;;;4.89;56.79;98102.16;6269496;28;20326;-74
2022/02/25 10:46:22;;;;;;;2.10;0.87;;;;;;;5.20;57.19;98101.44;6259528;28;20234;-75
2022/02/25 10:49:27;;;;;;;1.07;0.80;;;;;;;5.35;55.82;98112.91;6277220;28;20234;-75
2022/02/25 10:52:35;;;;;;;1.57;0.63;;;;;;;5.38;56.20;98086.59;6275540;28;20690;-76
2022/02/25 10:55:41;;;;;;;1.17;0.83;;;;;;;5.05;56.24;98116.19;6275725;28;20234;-76
2022/02/25 10:58:45;;;;;;;1.90;0.80;;;;;;;4.90;55.20;98113.47;6258191;28;20686;-75
2022/02/25 11:01:48;;;;;;;1.17;0.80;;;;;;;4.74;55.43;98114.25;6255156;28;20768;-75
2022/02/25 11:04:58;;;;;;;0.83;0.67;;;;;;;4.71;56.22;98129.25;6235426;28;20736;-75
2022/02/25 11:08:04;;;;;;;1.37;0.70;;;;;;;4.75;55.75;98115.97;6248220;28;20239;-77
2022/02/25 11:11:06;;;;;;;1.10;0.70;;;;;;;4.81;54.44;98112.19;6275684;28;20228;-75
2022/02/25 11:14:08;;;;;;;1.80;0.70;;;;;;;4.94;54.54;98113.25;6257627;28;20271;-75
2022/02/25 11:17:11;;;;;;;1.97;0.60;;;;;;;5.29;53.55;98115.84;6276367;28;20634;-75
2022/02/25 11:20:18;;;;;;;0.60;0.50;;;;;;;5.68;51.62;98112.91;6260038;28;20235;-74
2022/02/25 11:23:21;;;;;;;1.33;0.80;;;;;;;5.95;50.83;98105.34;6257849;28;20258;-72
2022/02/25 11:26:24;;;;;;;1.37;0.73;;;;;;;5.97;49.32;98120.06;6275262;28;20801;-71
2022/02/25 11:29:32;;;;;;;0.60;0.60;;;;;;;6.17;49.26;98114.56;6272696;28;20233;-74
2022/02/25 11:32:59;;;;;;;2.83;0.73;;;;;;;6.26;49.20;98121.06;6234366;28;20494;-67
2022/02/25 11:36:07;;;;;;;1.03;0.60;;;;;;;6.31;49.56;98111.16;6278461;28;20687;-67
2022/02/25 11:39:43;;;;;;;1.53;0.90;;;;;;;6.40;49.00;98121.09;6242152;28;20212;-71
2022/02/25 11:42:48;;;;;;;1.03;0.70;;;;;;;6.86;46.62;98119.34;6250513;28;20256;-73
2022/02/25 11:45:53;;;;;;;1.77;0.70;;;;;;;6.78;46.59;98108.44;6223413;28;20231;-71
2022/02/25 11:48:57;;;;;;;0.97;0.60;;;;;;;6.72;47.13;98110.56;6247301;28;20384;-73
2022/02/25 11:52:06;;;;;;;2.43;0.70;;;;;;;6.82;47.56;98115.19;6275155;28;20243;-71
2022/02/25 11:55:22;;;;;;;2.00;0.87;;;;;;;6.69;45.61;98102.91;6258578;28;20237;-71
2022/02/25 11:58:49;;;;;;;1.20;0.60;;;;;;;6.95;46.37;98128.44;6257108;28;20714;-72
2022/02/25 12:02:12;;;;;;;1.90;0.70;;;;;;;6.84;44.29;98113.31;6256500;28;20600;-70
2022/02/25 12:05:16;;;;;;;1.67;0.70;;;;;;;6.79;44.80;98104.88;6257054;28;20235;-71
2022/02/25 12:08:20;;;;;;;1.07;0.80;;;;;;;6.67;44.43;98105.59;6277350;28;20230;-72
2022/02/25 12:11:32;;;;;;;0.63;0.57;;;;;;;6.76;44.31;98091.94;6262865;28;20229;-71
2022/02/25 12:15:08;;;;;;;1.93;0.60;;;;;;;6.87;45.69;98099.19;6281479;28;20722;-72
2022/02/25 12:18:12;;;;;;;1.60;0.93;;;;;;;6.78;44.58;98097.13;6261634;28;20755;-71
2022/02/25 12:21:43;;;;;;;0.97;0.73;;;;;;;6.73;44.76;98089.50;6265918;28;20259;-72
2022/02/25 12:24:53;;;;;;;1.17;0.70;;;;;;;6.72;43.79;98090.44;6280447;28;20599;-71
2022/02/25 12:27:55;;;;;;;1.67;0.80;;;;;;;6.81;43.01;98089.03;6279168;28;20245;-72
2022/02/25 12:30:58;;;;;;;0.70;0.60;;;;;;;6.94;42.62;98080.38;6279242;28;20292;-72
2022/02/25 12:34:20;;;;;;;0.73;0.53;;;;;;;6.91;43.33;98092.81;6256786;28;20704;-72
2022/02/25 12:37:22;;;;;;;1.37;0.83;;;;;;;6.83;43.23;98100.28;6247491;28;20247;-72
2022/02/25 12:40:24;;;;;;;0.80;0.63;;;;;;;6.72;42.15;98094.81;6215631;28;20357;-72
2022/02/25 12:43:26;;;;;;;1.57;0.80;;;;;;;6.87;43.04;98088.69;6254967;28;20703;-72
2022/02/25 12:46:52;;;;;;;1.40;0.87;;;;;;;6.70;43.14;98081.78;6253259;28;20230;-72
2022/02/25 12:49:54;;;;;;;1.23;0.73;;;;;;;6.72;42.93;98089.59;6254622;28;20707;-72
2022/02/25 12:53:03;;;;;;;2.73;0.63;;;;;;;6.69;42.78;98089.78;6254239;28;20239;-72
2022/02/25 12:56:08;;;;;;;1.17;0.93;;;;;;;6.74;42.54;98085.09;6253348;28;20327;-73
2022/02/25 12:59:15;;;;;;;0.73;0.40;;;;;;;6.80;43.04;98090.81;6254055;28;20745;-72
2022/02/25 13:02:19;;;;;;;2.00;0.57;;;;;;;6.83;43.01;98097.66;6254231;28;20710;-72
2022/02/25 13:05:22;;;;;;;1.13;0.60;;;;;;;6.69;42.19;98090.59;6254040;28;20230;-71
2022/02/25 13:08:30;;;;;;;1.87;0.80;;;;;;;6.72;42.18;98089.59;6240122;28;20229;-72
2022/02/25 13:11:33;;;;;;;2.33;0.70;;;;;;;6.88;42.86;98098.25;6250192;28;20726;-72
2022/02/25 13:14:37;;;;;;;3.80;0.70;;;;;;;7.16;42.18;98092.22;6253957;28;20322;-72
2022/02/25 13:17:39;;;;;;;2.77;0.87;;;;;;;7.31;41.74;98099.16;6252050;28;20770;-73
2022/02/25 13:20:41;;;;;;;0.80;0.67;;;;;;;7.27;42.69;98082.75;6239269;28;20710;-71
2022/02/25 13:23:49;;;;;;;1.03;0.50;;;;;;;7.30;42.83;98105.34;6228092;28;20238;-72
2022/02/25 13:27:00;;;;;;;2.83;0.73;;;;;;;7.03;42.87;98100.81;6254286;28;20241;-71
2022/02/25 13:30:17;;;;;;;0.90;0.60;;;;;;;7.23;43.42;98102.25;6253284;28;20702;-72
2022/02/25 13:33:21;;;;;;;2.00;1.17;;;;;;;7.50;42.69;98107.59;6238787;28;20219;-72
2022/02/25 13:36:24;;;;;;;1.30;0.57;;;;;;;7.58;41.80;98096.66;6269594;28;20264;-72
2022/02/25 13:39:31;;;;;;;2.53;0.90;;;;;;;7.40;41.09;98106.47;6256079;28;20243;-72
2022/02/25 13:42:35;;;;;;;1.57;0.60;;;;;;;7.40;41.65;98104.69;6257632;28;20690;-73
2022/02/25 13:45:37;;;;;;;2.03;0.70;;;;;;;7.29;41.66;98120.25;6260045;28;20236;-72
2022/02/25 13:52:21;;;;;;;2.23;0.80;;;;;;;6.75;40.85;98121.72;6277332;28;20735;-72
2022/02/25 13:55:24;;;;;;;3.80;0.90;;;;;;;6.65;41.05;98116.19;6277917;28;20596;-72
2022/02/25 13:58:28;;;;;;;2.70;0.83;;;;;;;6.63;40.69;98122.44;6277130;28;20242;-72
2022/02/25 14:01:32;;;;;;;2.77;0.87;;;;;;;6.71;41.25;98125.44;6277862;28;20235;-71
2022/02/25 14:04:35;;;;;;;5.63;0.80;;;;;;;6.75;41.93;98124.34;6277279;28;20246;-73
2022/02/25 14:07:43;;;;;;;1.23;0.60;;;;;;;6.72;41.64;98121.91;6252638;28;20235;-73
2022/02/25 14:10:45;;;;;;;1.10;0.60;;;;;;;6.70;40.56;98125.53;6277197;28;20237;-71
2022/02/25 14:13:47;;;;;;;1.17;0.80;;;;;;;6.42;41.36;98119.25;6259134;28;20234;-71
2022/02/25 14:16:49;;;;;;;0.80;0.60;;;;;;;6.42;40.49;98128.91;6276843;28;20227;-71
2022/02/25 14:20:05;;;;;;;1.03;0.60;;;;;;;6.46;41.95;98119.94;6276609;28;20227;-73
2022/02/25 14:23:12;;;;;;;2.87;0.80;;;;;;;6.37;41.23;98126.53;6273353;28;20322;-71
2022/02/25 14:26:30;;;;;;;1.73;0.70;;;;;;;6.57;41.93;98123.66;6251888;28;20231;-74
2022/02/25 14:29:32;;;;;;;0.80;0.50;;;;;;;6.55;41.36;98132.53;6238278;28;20840;-71
2022/02/25 14:32:34;;;;;;;4.40;0.80;;;;;;;6.52;41.23;98128.28;6236738;28;20709;-73
2022/02/25 14:35:37;;;;;;;2.10;0.70;;;;;;;6.47;42.41;98124.25;6256953;28;20222;-72
2022/02/25 14:38:43;;;;;;;0.97;0.77;;;;;;;6.32;41.92;98128.56;6235915;28;20227;-72
2022/02/25 14:41:45;;;;;;;1.37;0.70;;;;;;;6.38;42.15;98146.59;6233155;28;20285;-71
2022/02/25 14:44:48;;;;;;;2.20;0.77;;;;;;;6.36;42.52;98137.97;6232246;28;20234;-72
2022/02/25 14:47:50;;;;;;;1.30;0.70;;;;;;;6.34;42.58;98131.94;6250036;28;20234;-70